sensor_id;sensor_type;location;lat;lon;timestamp;temperature;humidity
39601;DHT22;25297;44.758;11.310;2024-01-30T00:02:21;6.30;99.90
39601;DHT22;25297;44.758;11.310;2024-01-30T00:04:47;6.20;99.90
39601;DHT22;25297;44.758;11.310;2024-01-30T00:07:12;6.20;99.90
39601;DHT22;25297;44.758;11.310;2024-01-30T00:09:38;6.20;99.90
39601;DHT22;25297;44.758;11.310;2024-01-30T00:12:07;6.20;99.90
39601;DHT22;25297;44.758;11.310;2024-01-30T00:14:32;6.20;99.90
39601;DHT22;25297;44.758;11.310;2024-01-30T00:16:58;6.20;99.90
39601;DHT22;25297;44.758;11.310;2024-01-30T00:19:24;6.20;99.90
39601;DHT22;25297;44.758;11.310;2024-01-30T00:21:49;6.20;99.90
39601;DHT22;25297;44.758;11.310;2024-01-30T00:24:15;6.20;99.90
39601;DHT22;25297;44.758;11.310;2024-01-30T00:26:41;6.20;99.90
39601;DHT22;25297;44.758;11.310;2024-01-30T00:29:06;6.20;99.90
39601;DHT22;25297;44.758;11.310;2024-01-30T00:31:32;6.10;99.90
39601;DHT22;25297;44.758;11.310;2024-01-30T00:33:57;6.00;99.90
39601;DHT22;25297;44.758;11.310;2024-01-30T00:36:23;6.00;99.90
39601;DHT22;25297;44.758;11.310;2024-01-30T00:38:49;5.90;99.90
39601;DHT22;25297;44.758;11.310;2024-01-30T00:41:15;5.90;99.90
39601;DHT22;25297;44.758;11.310;2024-01-30T00:43:42;5.90;99.90
39601;DHT22;25297;44.758;11.310;2024-01-30T00:46:08;5.80;99.90
39601;DHT22;25297;44.758;11.310;2024-01-30T00:48:33;5.90;99.90
39601;DHT22;25297;44.758;11.310;2024-01-30T00:50:59;5.80;99.90
39601;DHT22;25297;44.758;11.310;2024-01-30T00:53:25;5.80;99.90
39601;DHT22;25297;44.758;11.310;2024-01-30T00:55:50;5.70;99.90
39601;DHT22;25297;44.758;11.310;2024-01-30T00:58:16;5.70;99.90
39601;DHT22;25297;44.758;11.310;2024-01-30T01:00:41;5.70;99.90
39601;DHT22;25297;44.758;11.310;2024-01-30T01:03:07;5.70;99.90
39601;DHT22;25297;44.758;11.310;2024-01-30T01:05:33;5.70;99.90
39601;DHT22;25297;44.758;11.310;2024-01-30T01:07:58;5.70;99.90
39601;DHT22;25297;44.758;11.310;2024-01-30T01:10:24;5.70;99.90
39601;DHT22;25297;44.758;11.310;2024-01-30T01:12:49;5.60;99.90
39601;DHT22;25297;44.758;11.310;2024-01-30T01:15:15;5.50;99.90
39601;DHT22;25297;44.758;11.310;2024-01-30T01:17:41;5.50;99.90
39601;DHT22;25297;44.758;11.310;2024-01-30T01:20:07;5.60;99.90
39601;DHT22;25297;44.758;11.310;2024-01-30T01:22:34;5.70;99.90
39601;DHT22;25297;44.758;11.310;2024-01-30T01:25:00;5.70;99.90
39601;DHT22;25297;44.758;11.310;2024-01-30T01:27:26;5.70;99.90
39601;DHT22;25297;44.758;11.310;2024-01-30T01:29:53;5.70;99.90
39601;DHT22;25297;44.758;11.310;2024-01-30T01:32:19;5.90;99.90
39601;DHT22;25297;44.758;11.310;2024-01-30T01:34:44;5.90;99.90
39601;DHT22;25297;44.758;11.310;2024-01-30T01:37:10;5.90;99.90
39601;DHT22;25297;44.758;11.310;2024-01-30T01:39:36;5.90;99.90
39601;DHT22;25297;44.758;11.310;2024-01-30T01:42:03;5.90;99.90
39601;DHT22;25297;44.758;11.310;2024-01-30T01:44:29;5.90;99.90
39601;DHT22;25297;44.758;11.310;2024-01-30T01:46:55;5.80;99.90
39601;DHT22;25297;44.758;11.310;2024-01-30T01:49:24;5.80;99.90
39601;DHT22;25297;44.758;11.310;2024-01-30T01:51:51;5.80;99.90
39601;DHT22;25297;44.758;11.310;2024-01-30T01:54:18;5.70;99.90
39601;DHT22;25297;44.758;11.310;2024-01-30T01:56:43;5.70;99.90
39601;DHT22;25297;44.758;11.310;2024-01-30T01:59:09;5.70;99.90
39601;DHT22;25297;44.758;11.310;2024-01-30T02:01:37;5.80;99.90
39601;DHT22;25297;44.758;11.310;2024-01-30T02:04:02;5.70;99.90
39601;DHT22;25297;44.758;11.310;2024-01-30T02:06:28;5.70;99.90
39601;DHT22;25297;44.758;11.310;2024-01-30T02:08:54;5.70;99.90
39601;DHT22;25297;44.758;11.310;2024-01-30T02:11:21;5.70;99.90
39601;DHT22;25297;44.758;11.310;2024-01-30T02:13:47;5.70;99.90
39601;DHT22;25297;44.758;11.310;2024-01-30T02:16:13;5.70;99.90
39601;DHT22;25297;44.758;11.310;2024-01-30T02:18:38;5.80;99.90
39601;DHT22;25297;44.758;11.310;2024-01-30T02:21:08;5.80;99.90
39601;DHT22;25297;44.758;11.310;2024-01-30T02:23:34;5.90;99.90
39601;DHT22;25297;44.758;11.310;2024-01-30T02:26:00;5.90;99.90
39601;DHT22;25297;44.758;11.310;2024-01-30T02:28:26;6.00;99.90
39601;DHT22;25297;44.758;11.310;2024-01-30T02:30:53;6.00;99.90
39601;DHT22;25297;44.758;11.310;2024-01-30T02:33:18;6.00;99.90
39601;DHT22;25297;44.758;11.310;2024-01-30T02:35:44;6.10;99.90
39601;DHT22;25297;44.758;11.310;2024-01-30T02:38:09;6.00;99.90
39601;DHT22;25297;44.758;11.310;2024-01-30T02:40:35;6.00;99.90
39601;DHT22;25297;44.758;11.310;2024-01-30T02:43:02;6.00;99.90
39601;DHT22;25297;44.758;11.310;2024-01-30T02:45:27;6.00;99.90
39601;DHT22;25297;44.758;11.310;2024-01-30T02:47:53;6.00;99.90
39601;DHT22;25297;44.758;11.310;2024-01-30T02:50:19;6.00;99.90
39601;DHT22;25297;44.758;11.310;2024-01-30T02:52:44;6.00;99.90
39601;DHT22;25297;44.758;11.310;2024-01-30T02:55:10;5.90;99.90
39601;DHT22;25297;44.758;11.310;2024-01-30T02:57:36;5.90;99.90
39601;DHT22;25297;44.758;11.310;2024-01-30T03:00:02;5.80;99.90
39601;DHT22;25297;44.758;11.310;2024-01-30T03:02:29;5.90;99.90
39601;DHT22;25297;44.758;11.310;2024-01-30T03:04:55;5.90;99.90
39601;DHT22;25297;44.758;11.310;2024-01-30T03:07:20;5.90;99.90
39601;DHT22;25297;44.758;11.310;2024-01-30T03:09:46;5.80;99.90
39601;DHT22;25297;44.758;11.310;2024-01-30T03:12:12;5.80;99.90
39601;DHT22;25297;44.758;11.310;2024-01-30T03:14:37;5.80;99.90
39601;DHT22;25297;44.758;11.310;2024-01-30T03:17:03;5.80;99.90
39601;DHT22;25297;44.758;11.310;2024-01-30T03:19:28;5.80;99.90
39601;DHT22;25297;44.758;11.310;2024-01-30T03:21:54;5.80;99.90
39601;DHT22;25297;44.758;11.310;2024-01-30T03:24:20;5.70;99.90
39601;DHT22;25297;44.758;11.310;2024-01-30T03:26:46;5.60;99.90
39601;DHT22;25297;44.758;11.310;2024-01-30T03:29:11;5.70;99.90
39601;DHT22;25297;44.758;11.310;2024-01-30T03:31:37;5.70;99.90
39601;DHT22;25297;44.758;11.310;2024-01-30T03:34:03;5.70;99.90
39601;DHT22;25297;44.758;11.310;2024-01-30T03:36:28;5.70;99.90
39601;DHT22;25297;44.758;11.310;2024-01-30T03:38:54;5.80;99.90
39601;DHT22;25297;44.758;11.310;2024-01-30T03:41:19;5.80;99.90
39601;DHT22;25297;44.758;11.310;2024-01-30T03:43:46;5.70;99.90
39601;DHT22;25297;44.758;11.310;2024-01-30T03:46:12;5.70;99.90
39601;DHT22;25297;44.758;11.310;2024-01-30T03:48:38;5.70;99.90
39601;DHT22;25297;44.758;11.310;2024-01-30T03:51:04;5.70;99.90
39601;DHT22;25297;44.758;11.310;2024-01-30T03:53:30;5.80;99.90
39601;DHT22;25297;44.758;11.310;2024-01-30T03:55:56;5.80;99.90
39601;DHT22;25297;44.758;11.310;2024-01-30T03:58:21;5.80;99.90
39601;DHT22;25297;44.758;11.310;2024-01-30T04:00:47;5.80;99.90
39601;DHT22;25297;44.758;11.310;2024-01-30T04:03:14;5.80;99.90
39601;DHT22;25297;44.758;11.310;2024-01-30T04:05:40;5.80;99.90
39601;DHT22;25297;44.758;11.310;2024-01-30T04:08:07;5.80;99.90
39601;DHT22;25297;44.758;11.310;2024-01-30T04:10:33;5.90;99.90
39601;DHT22;25297;44.758;11.310;2024-01-30T04:12:58;5.90;99.90
39601;DHT22;25297;44.758;11.310;2024-01-30T04:15:25;5.70;99.90
39601;DHT22;25297;44.758;11.310;2024-01-30T04:17:50;5.70;99.90
39601;DHT22;25297;44.758;11.310;2024-01-30T04:20:16;5.70;99.90
39601;DHT22;25297;44.758;11.310;2024-01-30T04:22:46;5.70;99.90
39601;DHT22;25297;44.758;11.310;2024-01-30T04:25:13;5.80;99.90
39601;DHT22;25297;44.758;11.310;2024-01-30T04:27:39;5.80;99.90
39601;DHT22;25297;44.758;11.310;2024-01-30T04:30:05;5.80;99.90
39601;DHT22;25297;44.758;11.310;2024-01-30T04:32:31;5.80;99.90
39601;DHT22;25297;44.758;11.310;2024-01-30T04:34:57;5.80;99.90
39601;DHT22;25297;44.758;11.310;2024-01-30T04:37:23;5.80;99.90
39601;DHT22;25297;44.758;11.310;2024-01-30T04:39:50;5.80;99.90
39601;DHT22;25297;44.758;11.310;2024-01-30T04:42:16;5.80;99.90
39601;DHT22;25297;44.758;11.310;2024-01-30T04:44:41;5.80;99.90
39601;DHT22;25297;44.758;11.310;2024-01-30T04:47:07;5.70;99.90
39601;DHT22;25297;44.758;11.310;2024-01-30T04:49:34;5.70;99.90
39601;DHT22;25297;44.758;11.310;2024-01-30T04:52:00;5.70;99.90
39601;DHT22;25297;44.758;11.310;2024-01-30T04:54:26;5.60;99.90
39601;DHT22;25297;44.758;11.310;2024-01-30T04:56:51;5.60;99.90
39601;DHT22;25297;44.758;11.310;2024-01-30T04:59:17;5.70;99.90
39601;DHT22;25297;44.758;11.310;2024-01-30T05:01:42;5.70;99.90
39601;DHT22;25297;44.758;11.310;2024-01-30T05:04:09;5.70;99.90
39601;DHT22;25297;44.758;11.310;2024-01-30T05:06:34;5.70;99.90
39601;DHT22;25297;44.758;11.310;2024-01-30T05:09:00;5.80;99.90
39601;DHT22;25297;44.758;11.310;2024-01-30T05:11:26;5.80;99.90
39601;DHT22;25297;44.758;11.310;2024-01-30T05:13:51;5.80;99.90
39601;DHT22;25297;44.758;11.310;2024-01-30T05:16:17;5.80;99.90
39601;DHT22;25297;44.758;11.310;2024-01-30T05:18:43;5.70;99.90
39601;DHT22;25297;44.758;11.310;2024-01-30T05:21:10;5.70;99.90
39601;DHT22;25297;44.758;11.310;2024-01-30T05:23:35;5.70;99.90
39601;DHT22;25297;44.758;11.310;2024-01-30T05:26:01;5.80;99.90
39601;DHT22;25297;44.758;11.310;2024-01-30T05:28:29;5.80;99.90
39601;DHT22;25297;44.758;11.310;2024-01-30T05:30:56;5.80;99.90
39601;DHT22;25297;44.758;11.310;2024-01-30T05:33:22;5.80;99.90
39601;DHT22;25297;44.758;11.310;2024-01-30T05:35:47;5.90;99.90
39601;DHT22;25297;44.758;11.310;2024-01-30T05:38:14;5.90;99.90
39601;DHT22;25297;44.758;11.310;2024-01-30T05:40:40;5.90;99.90
39601;DHT22;25297;44.758;11.310;2024-01-30T05:43:06;5.90;99.90
39601;DHT22;25297;44.758;11.310;2024-01-30T05:45:32;6.00;99.90
39601;DHT22;25297;44.758;11.310;2024-01-30T05:47:57;6.00;99.90
39601;DHT22;25297;44.758;11.310;2024-01-30T05:50:23;6.00;99.90
39601;DHT22;25297;44.758;11.310;2024-01-30T05:52:50;6.00;99.90
39601;DHT22;25297;44.758;11.310;2024-01-30T05:55:16;6.00;99.90
39601;DHT22;25297;44.758;11.310;2024-01-30T05:57:41;5.90;99.90
39601;DHT22;25297;44.758;11.310;2024-01-30T06:00:07;5.90;99.90
39601;DHT22;25297;44.758;11.310;2024-01-30T06:02:34;5.90;99.90
39601;DHT22;25297;44.758;11.310;2024-01-30T06:04:59;5.80;99.90
39601;DHT22;25297;44.758;11.310;2024-01-30T06:07:25;5.90;99.90
39601;DHT22;25297;44.758;11.310;2024-01-30T06:09:51;5.90;99.90
39601;DHT22;25297;44.758;11.310;2024-01-30T06:12:16;5.90;99.90
39601;DHT22;25297;44.758;11.310;2024-01-30T06:14:42;5.90;99.90
39601;DHT22;25297;44.758;11.310;2024-01-30T06:17:08;5.90;99.90
39601;DHT22;25297;44.758;11.310;2024-01-30T06:19:34;5.90;99.90
39601;DHT22;25297;44.758;11.310;2024-01-30T06:22:00;5.90;99.90
39601;DHT22;25297;44.758;11.310;2024-01-30T06:24:26;5.90;99.90
39601;DHT22;25297;44.758;11.310;2024-01-30T06:26:51;5.90;99.90
39601;DHT22;25297;44.758;11.310;2024-01-30T06:29:17;5.90;99.90
39601;DHT22;25297;44.758;11.310;2024-01-30T06:31:43;6.00;99.90
39601;DHT22;25297;44.758;11.310;2024-01-30T06:34:11;6.00;99.90
39601;DHT22;25297;44.758;11.310;2024-01-30T06:36:37;6.00;99.90
39601;DHT22;25297;44.758;11.310;2024-01-30T06:39:03;6.00;99.90
39601;DHT22;25297;44.758;11.310;2024-01-30T06:41:29;6.00;99.90
39601;DHT22;25297;44.758;11.310;2024-01-30T06:43:56;6.00;99.90
39601;DHT22;25297;44.758;11.310;2024-01-30T06:46:21;6.00;99.90
39601;DHT22;25297;44.758;11.310;2024-01-30T06:48:47;6.10;99.90
39601;DHT22;25297;44.758;11.310;2024-01-30T06:51:13;6.00;99.90
39601;DHT22;25297;44.758;11.310;2024-01-30T06:53:38;6.10;99.90
39601;DHT22;25297;44.758;11.310;2024-01-30T06:56:05;6.00;99.90
39601;DHT22;25297;44.758;11.310;2024-01-30T06:58:30;6.00;99.90
39601;DHT22;25297;44.758;11.310;2024-01-30T07:00:56;6.00;99.90
39601;DHT22;25297;44.758;11.310;2024-01-30T07:03:22;5.90;99.90
39601;DHT22;25297;44.758;11.310;2024-01-30T07:05:48;5.90;99.90
39601;DHT22;25297;44.758;11.310;2024-01-30T07:08:15;5.90;99.90
39601;DHT22;25297;44.758;11.310;2024-01-30T07:10:45;5.90;99.90
39601;DHT22;25297;44.758;11.310;2024-01-30T07:13:11;5.90;99.90
39601;DHT22;25297;44.758;11.310;2024-01-30T07:15:37;5.80;99.90
39601;DHT22;25297;44.758;11.310;2024-01-30T07:18:04;5.80;99.90
39601;DHT22;25297;44.758;11.310;2024-01-30T07:20:30;5.80;99.90
39601;DHT22;25297;44.758;11.310;2024-01-30T07:22:58;5.80;99.90
39601;DHT22;25297;44.758;11.310;2024-01-30T07:25:23;5.80;99.90
39601;DHT22;25297;44.758;11.310;2024-01-30T07:27:52;5.80;99.90
39601;DHT22;25297;44.758;11.310;2024-01-30T07:30:21;5.80;99.90
39601;DHT22;25297;44.758;11.310;2024-01-30T07:32:47;5.80;99.90
39601;DHT22;25297;44.758;11.310;2024-01-30T07:35:13;5.70;99.90
39601;DHT22;25297;44.758;11.310;2024-01-30T07:37:39;5.70;99.90
39601;DHT22;25297;44.758;11.310;2024-01-30T07:40:06;5.70;99.90
39601;DHT22;25297;44.758;11.310;2024-01-30T07:42:32;5.60;99.90
39601;DHT22;25297;44.758;11.310;2024-01-30T07:44:58;5.60;99.90
39601;DHT22;25297;44.758;11.310;2024-01-30T07:47:24;5.60;99.90
39601;DHT22;25297;44.758;11.310;2024-01-30T07:49:49;5.60;99.90
39601;DHT22;25297;44.758;11.310;2024-01-30T07:52:15;5.50;99.90
39601;DHT22;25297;44.758;11.310;2024-01-30T07:54:51;5.50;99.90
39601;DHT22;25297;44.758;11.310;2024-01-30T07:57:17;5.50;99.90
39601;DHT22;25297;44.758;11.310;2024-01-30T07:59:44;5.50;99.90
39601;DHT22;25297;44.758;11.310;2024-01-30T08:02:10;5.60;99.90
39601;DHT22;25297;44.758;11.310;2024-01-30T08:04:36;5.50;99.90
39601;DHT22;25297;44.758;11.310;2024-01-30T08:07:01;5.50;99.90
39601;DHT22;25297;44.758;11.310;2024-01-30T08:09:27;5.60;99.90
39601;DHT22;25297;44.758;11.310;2024-01-30T08:11:53;5.60;99.90
39601;DHT22;25297;44.758;11.310;2024-01-30T08:14:19;5.70;99.90
39601;DHT22;25297;44.758;11.310;2024-01-30T08:16:44;5.70;99.90
39601;DHT22;25297;44.758;11.310;2024-01-30T08:19:10;5.70;99.90
39601;DHT22;25297;44.758;11.310;2024-01-30T08:21:36;5.70;99.90
39601;DHT22;25297;44.758;11.310;2024-01-30T08:24:05;5.80;99.90
39601;DHT22;25297;44.758;11.310;2024-01-30T08:26:32;5.80;99.90
39601;DHT22;25297;44.758;11.310;2024-01-30T08:28:58;5.80;99.90
39601;DHT22;25297;44.758;11.310;2024-01-30T08:31:24;5.90;99.90
39601;DHT22;25297;44.758;11.310;2024-01-30T08:33:49;5.90;99.90
39601;DHT22;25297;44.758;11.310;2024-01-30T08:36:16;5.80;99.90
39601;DHT22;25297;44.758;11.310;2024-01-30T08:38:42;5.90;99.90
39601;DHT22;25297;44.758;11.310;2024-01-30T08:41:08;5.80;99.90
39601;DHT22;25297;44.758;11.310;2024-01-30T08:43:34;5.90;99.90
39601;DHT22;25297;44.758;11.310;2024-01-30T08:46:00;5.80;99.90
39601;DHT22;25297;44.758;11.310;2024-01-30T08:48:26;5.90;99.90
39601;DHT22;25297;44.758;11.310;2024-01-30T08:50:52;5.90;99.90
39601;DHT22;25297;44.758;11.310;2024-01-30T08:53:18;6.00;99.90
39601;DHT22;25297;44.758;11.310;2024-01-30T08:55:44;6.00;99.70
39601;DHT22;25297;44.758;11.310;2024-01-30T08:58:09;6.00;99.90
39601;DHT22;25297;44.758;11.310;2024-01-30T09:00:35;6.00;99.80
39601;DHT22;25297;44.758;11.310;2024-01-30T09:03:01;6.10;99.70
39601;DHT22;25297;44.758;11.310;2024-01-30T09:05:26;6.00;99.30
39601;DHT22;25297;44.758;11.310;2024-01-30T09:07:52;6.10;99.50
39601;DHT22;25297;44.758;11.310;2024-01-30T09:10:18;6.10;99.60
39601;DHT22;25297;44.758;11.310;2024-01-30T09:12:44;6.10;99.80
39601;DHT22;25297;44.758;11.310;2024-01-30T09:15:10;6.20;99.70
39601;DHT22;25297;44.758;11.310;2024-01-30T09:17:35;6.20;99.90
39601;DHT22;25297;44.758;11.310;2024-01-30T09:20:01;6.30;99.80
39601;DHT22;25297;44.758;11.310;2024-01-30T09:22:26;6.30;99.60
39601;DHT22;25297;44.758;11.310;2024-01-30T09:24:52;6.40;99.10
39601;DHT22;25297;44.758;11.310;2024-01-30T09:27:18;6.40;99.30
39601;DHT22;25297;44.758;11.310;2024-01-30T09:29:43;6.40;99.30
39601;DHT22;25297;44.758;11.310;2024-01-30T09:32:09;6.40;99.20
39601;DHT22;25297;44.758;11.310;2024-01-30T09:34:35;6.50;99.00
39601;DHT22;25297;44.758;11.310;2024-01-30T09:37:00;6.50;98.80
39601;DHT22;25297;44.758;11.310;2024-01-30T09:39:26;6.50;98.70
39601;DHT22;25297;44.758;11.310;2024-01-30T09:44:44;6.50;99.00
39601;DHT22;25297;44.758;11.310;2024-01-30T09:47:10;6.50;98.70
39601;DHT22;25297;44.758;11.310;2024-01-30T09:49:36;6.50;98.60
39601;DHT22;25297;44.758;11.310;2024-01-30T09:52:03;6.60;98.60
39601;DHT22;25297;44.758;11.310;2024-01-30T09:54:32;6.60;98.60
39601;DHT22;25297;44.758;11.310;2024-01-30T09:56:58;6.60;98.30
39601;DHT22;25297;44.758;11.310;2024-01-30T09:59:24;6.60;98.70
39601;DHT22;25297;44.758;11.310;2024-01-30T10:01:50;6.60;98.60
39601;DHT22;25297;44.758;11.310;2024-01-30T10:04:17;6.70;98.50
39601;DHT22;25297;44.758;11.310;2024-01-30T10:06:42;6.70;98.30
39601;DHT22;25297;44.758;11.310;2024-01-30T10:09:08;6.70;98.30
39601;DHT22;25297;44.758;11.310;2024-01-30T10:11:35;6.70;98.30
39601;DHT22;25297;44.758;11.310;2024-01-30T10:14:01;6.70;98.50
39601;DHT22;25297;44.758;11.310;2024-01-30T10:16:27;6.80;98.30
39601;DHT22;25297;44.758;11.310;2024-01-30T10:18:52;6.80;98.60
39601;DHT22;25297;44.758;11.310;2024-01-30T10:21:18;6.90;98.60
39601;DHT22;25297;44.758;11.310;2024-01-30T10:23:44;6.90;98.70
39601;DHT22;25297;44.758;11.310;2024-01-30T10:26:12;7.00;98.30
39601;DHT22;25297;44.758;11.310;2024-01-30T10:28:39;7.00;98.50
39601;DHT22;25297;44.758;11.310;2024-01-30T10:31:04;7.10;98.40
39601;DHT22;25297;44.758;11.310;2024-01-30T10:33:31;7.10;98.20
39601;DHT22;25297;44.758;11.310;2024-01-30T10:36:02;7.10;97.90
39601;DHT22;25297;44.758;11.310;2024-01-30T10:38:29;7.10;98.00
39601;DHT22;25297;44.758;11.310;2024-01-30T10:41:00;7.10;98.00
39601;DHT22;25297;44.758;11.310;2024-01-30T10:43:35;7.10;98.00
39601;DHT22;25297;44.758;11.310;2024-01-30T10:46:15;7.10;97.80
39601;DHT22;25297;44.758;11.310;2024-01-30T10:48:43;7.10;98.10
39601;DHT22;25297;44.758;11.310;2024-01-30T10:51:13;7.10;98.20
39601;DHT22;25297;44.758;11.310;2024-01-30T10:53:39;7.10;98.40
39601;DHT22;25297;44.758;11.310;2024-01-30T10:56:06;7.10;98.20
39601;DHT22;25297;44.758;11.310;2024-01-30T10:58:31;7.10;98.30
39601;DHT22;25297;44.758;11.310;2024-01-30T11:00:58;7.20;98.50
39601;DHT22;25297;44.758;11.310;2024-01-30T11:03:24;7.20;98.40
39601;DHT22;25297;44.758;11.310;2024-01-30T11:05:51;7.20;98.30
39601;DHT22;25297;44.758;11.310;2024-01-30T11:08:27;7.20;98.60
39601;DHT22;25297;44.758;11.310;2024-01-30T11:10:58;7.30;98.70
39601;DHT22;25297;44.758;11.310;2024-01-30T11:13:31;7.30;98.70
39601;DHT22;25297;44.758;11.310;2024-01-30T11:16:06;7.30;98.30
39601;DHT22;25297;44.758;11.310;2024-01-30T11:18:32;7.30;98.60
39601;DHT22;25297;44.758;11.310;2024-01-30T11:20:59;7.30;98.90
39601;DHT22;25297;44.758;11.310;2024-01-30T11:23:27;7.30;99.00
39601;DHT22;25297;44.758;11.310;2024-01-30T11:25:54;7.30;98.90
39601;DHT22;25297;44.758;11.310;2024-01-30T11:28:21;7.40;99.20
39601;DHT22;25297;44.758;11.310;2024-01-30T11:30:47;7.40;99.30
39601;DHT22;25297;44.758;11.310;2024-01-30T11:33:27;7.40;99.30
39601;DHT22;25297;44.758;11.310;2024-01-30T11:35:57;7.50;99.00
39601;DHT22;25297;44.758;11.310;2024-01-30T11:38:26;7.50;99.30
39601;DHT22;25297;44.758;11.310;2024-01-30T11:40:52;7.50;99.40
39601;DHT22;25297;44.758;11.310;2024-01-30T11:43:18;7.50;99.20
39601;DHT22;25297;44.758;11.310;2024-01-30T11:45:44;7.50;99.00
39601;DHT22;25297;44.758;11.310;2024-01-30T11:48:12;7.50;99.30
39601;DHT22;25297;44.758;11.310;2024-01-30T11:50:38;7.50;99.40
39601;DHT22;25297;44.758;11.310;2024-01-30T11:53:05;7.60;99.50
39601;DHT22;25297;44.758;11.310;2024-01-30T11:55:31;7.60;99.20
39601;DHT22;25297;44.758;11.310;2024-01-30T11:57:57;7.60;99.50
39601;DHT22;25297;44.758;11.310;2024-01-30T12:00:23;7.60;99.50
39601;DHT22;25297;44.758;11.310;2024-01-30T12:02:50;7.60;99.40
39601;DHT22;25297;44.758;11.310;2024-01-30T12:05:16;7.70;99.30
39601;DHT22;25297;44.758;11.310;2024-01-30T12:07:45;7.70;99.40
39601;DHT22;25297;44.758;11.310;2024-01-30T12:10:13;7.70;99.40
39601;DHT22;25297;44.758;11.310;2024-01-30T12:12:41;7.70;99.50
39601;DHT22;25297;44.758;11.310;2024-01-30T12:15:07;7.70;99.10
39601;DHT22;25297;44.758;11.310;2024-01-30T12:17:34;7.70;99.30
39601;DHT22;25297;44.758;11.310;2024-01-30T12:22:40;7.70;99.10
39601;DHT22;25297;44.758;11.310;2024-01-30T12:25:26;7.50;98.70
39601;DHT22;25297;44.758;11.310;2024-01-30T12:27:52;7.80;99.00
39601;DHT22;25297;44.758;11.310;2024-01-30T12:30:19;7.80;99.00
39601;DHT22;25297;44.758;11.310;2024-01-30T12:32:47;7.80;98.90
39601;DHT22;25297;44.758;11.310;2024-01-30T12:35:18;7.80;98.50
39601;DHT22;25297;44.758;11.310;2024-01-30T12:37:45;7.80;98.60
39601;DHT22;25297;44.758;11.310;2024-01-30T12:40:11;7.80;98.70
39601;DHT22;25297;44.758;11.310;2024-01-30T12:42:40;7.80;98.70
39601;DHT22;25297;44.758;11.310;2024-01-30T12:45:07;7.80;98.50
39601;DHT22;25297;44.758;11.310;2024-01-30T12:47:33;7.90;98.70
39601;DHT22;25297;44.758;11.310;2024-01-30T12:49:59;7.90;98.70
39601;DHT22;25297;44.758;11.310;2024-01-30T12:52:25;7.90;98.60
39601;DHT22;25297;44.758;11.310;2024-01-30T12:54:51;8.00;98.60
39601;DHT22;25297;44.758;11.310;2024-01-30T12:57:17;8.00;98.70
39601;DHT22;25297;44.758;11.310;2024-01-30T12:59:44;8.10;98.80
39601;DHT22;25297;44.758;11.310;2024-01-30T13:02:10;8.20;98.80
39601;DHT22;25297;44.758;11.310;2024-01-30T13:04:36;8.20;98.70
39601;DHT22;25297;44.758;11.310;2024-01-30T13:07:02;8.30;98.70
39601;DHT22;25297;44.758;11.310;2024-01-30T13:09:29;8.50;99.10
39601;DHT22;25297;44.758;11.310;2024-01-30T13:11:55;8.70;99.10
39601;DHT22;25297;44.758;11.310;2024-01-30T13:14:21;9.00;99.90
39601;DHT22;25297;44.758;11.310;2024-01-30T13:16:46;9.30;98.60
39601;DHT22;25297;44.758;11.310;2024-01-30T13:19:12;9.30;97.80
39601;DHT22;25297;44.758;11.310;2024-01-30T13:21:38;9.20;97.20
39601;DHT22;25297;44.758;11.310;2024-01-30T13:24:04;9.20;97.00
39601;DHT22;25297;44.758;11.310;2024-01-30T13:26:32;9.20;97.10
39601;DHT22;25297;44.758;11.310;2024-01-30T13:28:57;9.30;97.60
39601;DHT22;25297;44.758;11.310;2024-01-30T13:31:23;9.50;97.70
39601;DHT22;25297;44.758;11.310;2024-01-30T13:33:49;10.10;98.90
39601;DHT22;25297;44.758;11.310;2024-01-30T13:36:15;11.10;98.00
39601;DHT22;25297;44.758;11.310;2024-01-30T13:38:41;11.50;97.00
39601;DHT22;25297;44.758;11.310;2024-01-30T13:41:06;12.20;96.30
39601;DHT22;25297;44.758;11.310;2024-01-30T13:43:32;12.80;95.50
39601;DHT22;25297;44.758;11.310;2024-01-30T13:45:58;13.50;92.80
39601;DHT22;25297;44.758;11.310;2024-01-30T13:48:24;13.70;92.60
39601;DHT22;25297;44.758;11.310;2024-01-30T13:50:49;13.90;91.20
39601;DHT22;25297;44.758;11.310;2024-01-30T13:53:15;14.00;90.20
39601;DHT22;25297;44.758;11.310;2024-01-30T13:55:41;13.90;87.20
39601;DHT22;25297;44.758;11.310;2024-01-30T13:58:06;13.80;87.50
39601;DHT22;25297;44.758;11.310;2024-01-30T14:00:33;13.70;86.90
39601;DHT22;25297;44.758;11.310;2024-01-30T14:02:59;13.60;87.10
39601;DHT22;25297;44.758;11.310;2024-01-30T14:05:25;13.70;84.80
39601;DHT22;25297;44.758;11.310;2024-01-30T14:07:51;13.70;85.20
39601;DHT22;25297;44.758;11.310;2024-01-30T14:10:17;13.70;83.90
39601;DHT22;25297;44.758;11.310;2024-01-30T14:12:43;13.70;84.20
39601;DHT22;25297;44.758;11.310;2024-01-30T14:15:09;13.40;82.60
39601;DHT22;25297;44.758;11.310;2024-01-30T14:17:36;13.40;83.80
39601;DHT22;25297;44.758;11.310;2024-01-30T14:20:05;13.20;83.10
39601;DHT22;25297;44.758;11.310;2024-01-30T14:22:33;13.00;83.50
39601;DHT22;25297;44.758;11.310;2024-01-30T14:24:59;13.30;84.40
39601;DHT22;25297;44.758;11.310;2024-01-30T14:27:24;13.30;84.60
39601;DHT22;25297;44.758;11.310;2024-01-30T14:29:50;13.30;83.60
39601;DHT22;25297;44.758;11.310;2024-01-30T14:32:16;13.30;83.90
39601;DHT22;25297;44.758;11.310;2024-01-30T14:34:41;13.40;84.00
39601;DHT22;25297;44.758;11.310;2024-01-30T14:37:07;13.40;83.40
39601;DHT22;25297;44.758;11.310;2024-01-30T14:39:33;13.40;83.80
39601;DHT22;25297;44.758;11.310;2024-01-30T14:41:59;13.40;83.60
39601;DHT22;25297;44.758;11.310;2024-01-30T14:44:25;13.30;83.30
39601;DHT22;25297;44.758;11.310;2024-01-30T14:46:51;13.20;82.50
39601;DHT22;25297;44.758;11.310;2024-01-30T14:49:16;13.00;83.20
39601;DHT22;25297;44.758;11.310;2024-01-30T14:51:42;12.70;83.30
39601;DHT22;25297;44.758;11.310;2024-01-30T14:54:08;12.60;83.50
39601;DHT22;25297;44.758;11.310;2024-01-30T14:56:34;12.70;84.40
39601;DHT22;25297;44.758;11.310;2024-01-30T14:59:00;12.80;84.90
39601;DHT22;25297;44.758;11.310;2024-01-30T15:01:26;13.00;84.40
39601;DHT22;25297;44.758;11.310;2024-01-30T15:03:51;13.20;83.70
39601;DHT22;25297;44.758;11.310;2024-01-30T15:06:17;13.30;82.70
39601;DHT22;25297;44.758;11.310;2024-01-30T15:08:43;13.30;82.90
39601;DHT22;25297;44.758;11.310;2024-01-30T15:11:09;13.30;82.50
39601;DHT22;25297;44.758;11.310;2024-01-30T15:13:35;13.30;82.30
39601;DHT22;25297;44.758;11.310;2024-01-30T15:16:02;13.10;81.80
39601;DHT22;25297;44.758;11.310;2024-01-30T15:18:30;12.90;82.30
39601;DHT22;25297;44.758;11.310;2024-01-30T15:20:56;12.70;82.60
39601;DHT22;25297;44.758;11.310;2024-01-30T15:23:21;12.50;82.80
39601;DHT22;25297;44.758;11.310;2024-01-30T15:25:47;12.20;83.40
39601;DHT22;25297;44.758;11.310;2024-01-30T15:28:13;12.20;84.20
39601;DHT22;25297;44.758;11.310;2024-01-30T15:30:40;12.00;84.20